Nellis Air Force Base
KLSV : now visible

Airfield :











YOU CAN JOIN US ON...

 
LOGIN :

Register | Disclaimer

   EN    FR    IT 

 









Legend :    VFR   Marginal VFR   IFR   Intensive IFR   Very Intensive IFR
Visi :
Ceiling :
>= 8 km
>= 3000ft
5 to 8 km
1000 to 3000 ft
1500m to 5 km
500 to 1000 ft
800 to 1500m
200 to 500 ft
< 800m
< 200 ft
Symbols :   Thunderstorms  Fog  Heavy snow  Heavy precipitations  Wind > 20 kt






- Airport Elevation : 1870 ft


KLSV - Nellis Air Force Base

CURRENT METAR :
  • 161258Z AUTO 00000KT 10SM CLR 05/M05 A3029 RMK AO2 SLP259 T00511053 $

EXPIRED METARs :
  • 161158Z AUTO 35007KT 10SM CLR 05/M05 A3027 RMK AO2 SLP251 70015 T00521049 10098 20052 52019 $
  • 161058Z AUTO 33005KT 10SM CLR 06/M06 A3026 RMK AO2 SLP246 T00641059 $

TAF TAF KLSV
Valid from the 16 at 07:00 until the 17 at 13:00 UTC


160700Z 1607/1713 01006KT 9999 SKC QNH3015INS
BECMG 1618/1619 01012G18KT 9999 FEW250 QNH3037INS
BECMG 1700/1701 VRB06KT 9999 SKC QNH3039INS TX12/1622Z TN03/1614Z



MET'MAP, your aeronautical weather chart ! - Copyright ORBIFLY December 2007 - Disclaimer

ORBIFLY MET'MAP TEAM :

Programming & Development : Alexandra Zaïnal
Concept & original design : Baudouin d'Aumeries
Assistance for programming : Marc-Olivier Méhu
Technical & hardware support : Manuel Goepfert

Contact : metmap@orbifly.com




SOURCES & CREDITS :

   NOAA       Earth
Advisory